Time;durP1;ratioP1;P1;durP2;ratioP2;P2;SDS_P1;SDS_P2;PMS_P1;PMS_P2;Temp;Humidity;BMP_temperature;BMP_pressure;BME280_temperature;BME280_humidity;BME280_pressure;Samples;Min_cycle;Max_cycle;Signal;HPM_P1;HPM_P2
2022/07/16 00:03:09;;;;;;;5.35;3.47;;;;;;;23.46;44.62;94746.59;4172307;28;20061;-53
2022/07/16 00:05:11;;;;;;;8.50;3.10;;;;;;;23.41;45.06;94746.53;4165074;28;20516;-51
2022/07/16 00:07:13;;;;;;;5.68;3.47;;;;;;;23.35;45.59;94756.28;4169363;28;20087;-56
2022/07/16 00:09:15;;;;;;;5.65;3.03;;;;;;;23.34;45.51;94746.66;4158652;28;20057;-56
2022/07/16 00:11:17;;;;;;;5.18;3.17;;;;;;;23.35;45.58;94744.78;4159673;28;20060;-54
2022/07/16 00:13:19;;;;;;;6.85;3.33;;;;;;;23.37;46.02;94748.03;4173870;28;20048;-52
2022/07/16 00:15:20;;;;;;;7.15;3.25;;;;;;;23.38;45.81;94749.66;4171865;28;20045;-51
2022/07/16 00:17:22;;;;;;;7.28;3.13;;;;;;;23.35;45.98;94745.59;4175796;28;20119;-57
2022/07/16 00:19:24;;;;;;;5.75;3.30;;;;;;;23.29;45.85;94752.69;4171302;28;20132;-54
2022/07/16 00:21:26;;;;;;;5.95;2.97;;;;;;;23.26;46.24;94739.00;4176358;28;20447;-54
2022/07/16 00:23:27;;;;;;;5.35;3.08;;;;;;;23.24;46.28;94743.78;4161862;28;20056;-54
2022/07/16 00:25:29;;;;;;;5.93;3.22;;;;;;;23.20;46.28;94746.09;4171868;28;20439;-54
2022/07/16 00:27:31;;;;;;;6.72;3.10;;;;;;;23.17;46.67;94743.13;4166633;28;20448;-54
2022/07/16 00:29:33;;;;;;;9.20;3.63;;;;;;;23.14;46.71;94738.22;4163610;28;20056;-52
2022/07/16 00:31:35;;;;;;;6.32;3.45;;;;;;;23.13;46.79;94747.31;4159479;28;20049;-54
2022/07/16 00:33:37;;;;;;;8.88;3.42;;;;;;;23.07;46.52;94741.03;4160012;28;20502;-53
2022/07/16 00:35:39;;;;;;;9.88;3.42;;;;;;;23.05;46.59;94745.78;4171729;28;20489;-53
2022/07/16 00:37:40;;;;;;;5.00;3.13;;;;;;;23.05;46.76;94735.13;4160743;28;20046;-53
2022/07/16 00:39:42;;;;;;;6.80;3.45;;;;;;;23.02;46.72;94736.41;4170798;28;20045;-52
2022/07/16 00:41:46;;;;;;;5.15;2.90;;;;;;;22.90;46.78;94739.03;4163629;28;20045;-54
2022/07/16 00:43:51;;;;;;;5.97;2.90;;;;;;;22.78;46.75;94743.63;4161613;28;20716;-52
2022/07/16 00:45:53;;;;;;;6.82;2.33;;;;;;;22.67;46.55;94745.25;4170645;28;20351;-56
2022/07/16 00:47:55;;;;;;;4.97;2.72;;;;;;;22.53;46.49;94745.72;4173173;28;20393;-53
2022/07/16 00:49:56;;;;;;;4.97;3.08;;;;;;;22.46;46.86;94743.16;4167519;28;20124;-53
2022/07/16 00:51:58;;;;;;;5.95;2.60;;;;;;;22.30;46.73;94749.97;4170684;28;20562;-54
2022/07/16 00:54:00;;;;;;;6.13;2.88;;;;;;;21.94;47.35;94743.75;4175592;28;20144;-51
2022/07/16 00:56:03;;;;;;;3.10;2.30;;;;;;;21.50;48.28;94751.16;4173485;28;20451;-53
2022/07/16 00:58:07;;;;;;;2.50;1.92;;;;;;;21.16;48.97;94748.06;4163462;28;20501;-56
2022/07/16 01:00:09;;;;;;;3.15;2.00;;;;;;;21.11;48.99;94753.25;4164201;28;20049;-51
2022/07/16 01:02:11;;;;;;;4.78;1.90;;;;;;;21.06;49.47;94750.44;4169389;28;20110;-54
2022/07/16 01:04:14;;;;;;;3.97;2.03;;;;;;;21.20;48.99;94749.22;4172994;28;20483;-55
2022/07/16 01:06:17;;;;;;;2.90;1.92;;;;;;;21.31;48.83;94757.50;4160047;28;20053;-54
2022/07/16 01:08:20;;;;;;;3.30;2.10;;;;;;;21.46;48.39;94750.78;4164914;28;20448;-58
2022/07/16 01:10:22;;;;;;;3.58;1.80;;;;;;;21.59;48.34;94752.44;4165787;28;20114;-53
2022/07/16 01:12:30;;;;;;;3.30;1.77;;;;;;;21.74;48.16;94751.22;4166648;28;20536;-54
2022/07/16 01:14:33;;;;;;;6.57;2.22;;;;;;;21.79;48.13;94749.53;4175316;28;20130;-53
2022/07/16 01:16:34;;;;;;;4.65;2.13;;;;;;;21.88;47.87;94750.00;4159577;28;20083;-54
2022/07/16 01:18:37;;;;;;;8.02;2.30;;;;;;;21.94;47.85;94750.94;4161113;28;20075;-53
2022/07/16 01:20:39;;;;;;;3.92;2.47;;;;;;;21.99;47.88;94754.56;4175257;28;20515;-53
2022/07/16 01:22:41;;;;;;;3.88;2.42;;;;;;;22.04;47.95;94754.66;4164877;28;20054;-53
2022/07/16 01:24:43;;;;;;;4.22;2.55;;;;;;;22.09;47.47;94748.63;4158281;28;20131;-53
2022/07/16 01:26:44;;;;;;;5.75;3.00;;;;;;;22.15;47.65;94749.59;4158749;28;20064;-53
2022/07/16 01:28:46;;;;;;;5.25;2.42;;;;;;;22.14;47.82;94750.66;4162173;28;20041;-54
2022/07/16 01:30:48;;;;;;;5.65;2.90;;;;;;;22.02;48.08;94756.75;4169363;28;20482;-54
2022/07/16 01:32:50;;;;;;;4.80;2.95;;;;;;;21.95;48.35;94758.72;4161482;28;20052;-51
2022/07/16 01:34:52;;;;;;;4.60;2.92;;;;;;;21.88;48.50;94753.47;4174584;28;20055;-53
2022/07/16 01:36:59;;;;;;;6.22;3.42;;;;;;;21.63;49.49;94764.28;4170409;28;20049;-53
2022/07/16 01:39:01;;;;;;;6.63;3.00;;;;;;;21.48;49.83;94753.22;4159289;28;20473;-54
2022/07/16 01:41:02;;;;;;;8.65;3.50;;;;;;;21.28;50.33;94754.25;4164279;28;20057;-53
2022/07/16 01:43:15;;;;;;;4.93;2.92;;;;;;;21.10;50.70;94754.31;4165586;28;20103;-50
2022/07/16 01:45:16;;;;;;;7.72;3.47;;;;;;;20.73;51.76;94750.81;4170960;28;20366;-55
2022/07/16 01:47:18;;;;;;;4.50;3.10;;;;;;;20.56;52.41;94754.00;4171332;28;20396;-56
2022/07/16 01:49:20;;;;;;;3.78;3.10;;;;;;;20.54;52.60;94752.59;4171823;28;20053;-52
2022/07/16 01:51:22;;;;;;;5.70;3.00;;;;;;;20.63;52.38;94753.97;4163216;28;20045;-54
2022/07/16 01:53:24;;;;;;;7.70;3.83;;;;;;;20.54;52.78;94752.59;4174000;28;20057;-54
2022/07/16 01:55:26;;;;;;;5.90;3.35;;;;;;;20.44;53.03;94759.22;4174728;28;20057;-55
2022/07/16 01:57:27;;;;;;;4.65;3.22;;;;;;;20.10;53.91;94771.19;4174295;28;20049;-52
2022/07/16 01:59:29;;;;;;;10.73;3.28;;;;;;;20.08;54.05;94765.25;4175994;28;20075;-55
2022/07/16 02:01:31;;;;;;;5.70;3.13;;;;;;;20.08;53.99;94775.09;4174686;28;20052;-58
2022/07/16 02:03:32;;;;;;;9.63;3.35;;;;;;;20.10;53.95;94773.03;4174162;28;20056;-51
2022/07/16 02:05:35;;;;;;;4.43;3.17;;;;;;;20.08;53.83;94767.91;4169771;28;20422;-55
2022/07/16 02:07:37;;;;;;;4.53;3.00;;;;;;;20.02;53.52;94771.44;4159277;28;20057;-54
2022/07/16 02:09:39;;;;;;;5.85;2.95;;;;;;;19.75;54.12;94771.63;4169355;28;20049;-57
2022/07/16 02:11:40;;;;;;;10.48;3.40;;;;;;;19.69;54.62;94782.28;4175240;28;20148;-57
2022/07/16 02:13:42;;;;;;;6.05;3.20;;;;;;;19.51;54.95;94786.47;4158007;28;20060;-61
2022/07/16 02:15:44;;;;;;;4.45;2.60;;;;;;;19.32;55.59;94784.72;4159033;28;20061;-53
2022/07/16 02:17:46;;;;;;;6.95;3.22;;;;;;;19.12;56.08;94785.59;4165243;28;20195;-55
2022/07/16 02:19:48;;;;;;;4.35;2.80;;;;;;;19.23;55.72;94784.13;4175658;28;20053;-53
2022/07/16 02:21:49;;;;;;;5.88;2.92;;;;;;;19.34;55.44;94785.31;4161443;28;20547;-54
2022/07/16 02:23:51;;;;;;;4.25;2.97;;;;;;;19.52;54.73;94788.06;4164204;28;20126;-54
2022/07/16 02:25:53;;;;;;;7.30;3.38;;;;;;;19.71;54.33;94788.22;4170716;28;20059;-56
2022/07/16 02:28:07;;;;;;;5.13;2.75;;;;;;;19.92;53.73;94787.06;4168000;28;20438;-50
2022/07/16 02:30:09;;;;;;;5.82;3.28;;;;;;;20.15;53.40;94791.81;4158755;28;20057;-54
2022/07/16 02:32:11;;;;;;;4.70;3.13;;;;;;;20.34;52.86;94784.72;4173219;28;20130;-49
2022/07/16 02:34:13;;;;;;;5.43;2.88;;;;;;;20.51;52.69;94784.97;4157571;28;20116;-54
2022/07/16 02:36:15;;;;;;;4.40;2.78;;;;;;;20.64;52.00;94799.00;4166210;28;20099;-52
2022/07/16 02:38:17;;;;;;;3.95;3.05;;;;;;;20.76;51.51;94798.28;4175239;28;20043;-55
2022/07/16 02:40:18;;;;;;;4.00;2.70;;;;;;;20.83;51.21;94791.84;4163945;28;20457;-54
2022/07/16 02:42:20;;;;;;;5.55;3.10;;;;;;;20.86;51.27;94786.09;4158989;28;20144;-52
2022/07/16 02:44:22;;;;;;;4.18;2.83;;;;;;;20.93;51.08;94787.84;4171625;28;20420;-54
2022/07/16 02:46:24;;;;;;;4.07;2.85;;;;;;;20.96;50.95;94782.09;4159225;28;20575;-55
2022/07/16 02:48:25;;;;;;;5.20;2.78;;;;;;;20.99;50.77;94782.50;4168064;28;20041;-52
2022/07/16 02:50:27;;;;;;;4.97;2.55;;;;;;;21.02;50.72;94782.03;4167713;28;20053;-53
2022/07/16 02:52:29;;;;;;;5.15;2.67;;;;;;;21.04;50.83;94781.81;4164359;28;20497;-54
2022/07/16 02:54:31;;;;;;;5.28;3.00;;;;;;;21.01;50.73;94783.06;4177680;28;20045;-54
2022/07/16 02:56:33;;;;;;;5.10;2.90;;;;;;;20.97;51.05;94789.03;4170019;28;20121;-54
2022/07/16 02:58:34;;;;;;;5.35;3.03;;;;;;;20.95;50.90;94783.97;4161074;28;20057;-54
2022/07/16 03:00:36;;;;;;;3.92;2.60;;;;;;;20.98;50.76;94786.16;4170616;28;20201;-54
2022/07/16 03:02:38;;;;;;;5.57;2.75;;;;;;;20.95;50.70;94793.78;4176227;28;20061;-53
2022/07/16 03:04:40;;;;;;;8.98;3.00;;;;;;;20.45;52.29;94798.09;4162856;28;20049;-52
2022/07/16 03:06:42;;;;;;;5.57;3.00;;;;;;;20.12;53.32;94792.25;4176365;28;20049;-53
2022/07/16 03:08:46;;;;;;;4.90;3.10;;;;;;;19.94;53.51;94792.97;4172319;28;20144;-49
2022/07/16 03:10:47;;;;;;;5.00;3.05;;;;;;;19.66;54.28;94796.81;4170269;28;20045;-51
2022/07/16 03:12:49;;;;;;;8.32;3.28;;;;;;;19.57;54.78;94796.22;4166484;28;20084;-53
2022/07/16 03:14:51;;;;;;;9.90;3.78;;;;;;;19.71;54.72;94802.31;4174836;28;20060;-53
2022/07/16 03:16:53;;;;;;;7.03;3.20;;;;;;;19.90;54.27;94797.91;4162872;28;20045;-54
2022/07/16 03:18:54;;;;;;;3.45;2.58;;;;;;;20.13;53.88;94794.66;4176329;28;20378;-53
2022/07/16 03:20:56;;;;;;;9.23;2.97;;;;;;;20.34;53.25;94793.50;4170160;28;20486;-53
2022/07/16 03:22:58;;;;;;;5.65;2.95;;;;;;;20.50;52.74;94800.13;4161482;28;20065;-52
2022/07/16 03:25:00;;;;;;;4.22;3.25;;;;;;;20.65;52.40;94797.16;4174573;28;20526;-55
2022/07/16 03:27:01;;;;;;;7.68;3.22;;;;;;;20.79;52.01;94798.66;4160571;28;20045;-53
2022/07/16 03:29:03;;;;;;;9.98;3.28;;;;;;;20.93;51.54;94802.00;4161091;28;20041;-52
2022/07/16 03:31:05;;;;;;;5.75;2.95;;;;;;;21.05;51.19;94808.22;4170120;28;20143;-54
2022/07/16 03:33:06;;;;;;;8.73;3.83;;;;;;;21.16;50.90;94804.00;4163591;28;20053;-52
2022/07/16 03:35:10;;;;;;;3.95;2.85;;;;;;;21.24;50.69;94801.03;4175306;28;20056;-54
2022/07/16 03:37:11;;;;;;;5.63;3.28;;;;;;;21.29;50.87;94805.69;4177343;28;20124;-50
2022/07/16 03:39:13;;;;;;;6.88;2.95;;;;;;;21.34;50.88;94807.69;4170680;28;20049;-55
2022/07/16 03:41:15;;;;;;;7.95;3.00;;;;;;;21.37;50.61;94820.56;4161125;28;20072;-55
2022/07/16 03:43:17;;;;;;;9.07;3.45;;;;;;;21.43;50.71;94814.38;4160282;28;20045;-51
2022/07/16 03:45:19;;;;;;;6.05;3.38;;;;;;;21.48;50.13;94811.84;4160357;28;20071;-54
2022/07/16 03:47:20;;;;;;;5.15;3.65;;;;;;;21.54;50.25;94818.97;4161037;28;20053;-51
2022/07/16 03:49:22;;;;;;;8.55;3.80;;;;;;;21.56;50.25;94819.56;4159843;28;20502;-53
2022/07/16 03:51:24;;;;;;;8.35;3.60;;;;;;;21.63;50.37;94825.59;4169055;28;20049;-54
2022/07/16 03:53:26;;;;;;;6.95;4.10;;;;;;;21.69;50.30;94826.56;4176146;28;20052;-51
2022/07/16 03:55:28;;;;;;;8.43;3.45;;;;;;;21.72;50.41;94826.09;4177111;28;20053;-53
2022/07/16 03:57:30;;;;;;;6.97;4.35;;;;;;;21.72;50.44;94819.97;4162048;28;20045;-52
2022/07/16 03:59:31;;;;;;;7.75;4.80;;;;;;;21.75;50.74;94822.19;4171756;28;20053;-55
2022/07/16 04:01:33;;;;;;;6.70;3.47;;;;;;;21.77;50.56;94823.59;4177012;28;20523;-53
2022/07/16 04:03:36;;;;;;;7.78;3.70;;;;;;;21.80;50.92;94819.66;4170515;28;20049;-56
2022/07/16 04:05:38;;;;;;;5.50;3.78;;;;;;;21.82;50.81;94818.38;4168427;28;20114;-55
2022/07/16 04:07:39;;;;;;;12.38;3.90;;;;;;;21.86;50.82;94816.91;4166059;28;20493;-55
2022/07/16 04:09:41;;;;;;;4.70;3.47;;;;;;;21.88;50.38;94814.81;4174908;28;20543;-55
2022/07/16 04:11:43;;;;;;;7.93;3.55;;;;;;;21.92;49.76;94809.03;4174471;28;20045;-55
2022/07/16 04:13:45;;;;;;;11.65;3.40;;;;;;;21.94;49.79;94807.78;4159766;28;20096;-60
2022/07/16 04:15:46;;;;;;;6.70;3.50;;;;;;;21.97;49.67;94817.97;4168504;28;20389;-59
2022/07/16 04:17:48;;;;;;;5.95;3.60;;;;;;;22.02;49.22;94814.63;4175276;28;20345;-58
2022/07/16 04:19:50;;;;;;;3.80;3.30;;;;;;;22.09;49.16;94810.00;4176133;28;20128;-56
2022/07/16 04:21:52;;;;;;;6.38;3.60;;;;;;;22.12;49.47;94806.88;4172983;28;20049;-52
2022/07/16 04:23:53;;;;;;;5.43;3.72;;;;;;;22.14;49.17;94817.34;4159596;28;20069;-58
2022/07/16 04:25:55;;;;;;;8.43;3.38;;;;;;;22.21;49.07;94807.38;4169557;28;20501;-57
2022/07/16 04:27:57;;;;;;;7.22;3.80;;;;;;;22.27;49.51;94814.50;4164821;28;20297;-54
2022/07/16 04:29:59;;;;;;;5.90;3.50;;;;;;;22.32;49.11;94811.94;4161867;28;20048;-58
2022/07/16 04:32:01;;;;;;;6.18;3.80;;;;;;;22.38;49.00;94815.56;4173092;28;20048;-54
2022/07/16 04:34:02;;;;;;;5.72;3.45;;;;;;;22.42;48.82;94812.19;4168683;28;20124;-54
2022/07/16 04:36:04;;;;;;;7.30;3.75;;;;;;;22.41;48.59;94821.25;4177279;28;20061;-52
2022/07/16 04:38:06;;;;;;;7.38;3.15;;;;;;;22.24;48.99;94820.28;4176808;28;20049;-55
2022/07/16 04:40:10;;;;;;;7.20;3.70;;;;;;;22.00;48.92;94824.72;4177975;28;20126;-55
2022/07/16 04:42:12;;;;;;;7.00;3.78;;;;;;;21.83;49.62;94830.69;4170428;28;20059;-56
2022/07/16 04:44:13;;;;;;;6.13;3.72;;;;;;;21.78;50.14;94827.06;4165388;28;20045;-56
2022/07/16 04:46:15;;;;;;;27.33;22.80;;;;;;;21.72;50.14;94831.44;4174596;28;20079;-55
2022/07/16 04:48:17;;;;;;;11.70;7.55;;;;;;;21.69;49.90;94837.22;4172413;28;20052;-53
2022/07/16 04:50:18;;;;;;;15.18;10.80;;;;;;;21.75;50.33;94838.19;4167522;28;20105;-55
2022/07/16 04:52:30;;;;;;;33.45;24.55;;;;;;;21.87;50.57;94833.69;4178053;28;20135;-54
2022/07/16 04:54:33;;;;;;;5.82;4.03;;;;;;;21.98;49.97;94843.59;4163465;28;20707;-57
2022/07/16 04:56:34;;;;;;;20.45;11.52;;;;;;;22.15;49.82;94845.63;4160388;28;20053;-54
2022/07/16 04:58:36;;;;;;;30.70;25.52;;;;;;;22.30;49.50;94840.72;4160002;28;20442;-55
2022/07/16 05:00:38;;;;;;;18.08;14.48;;;;;;;22.48;49.15;94845.19;4161605;28;20130;-53
2022/07/16 05:02:58;;;;;;;9.25;5.70;;;;;;;22.60;48.81;94845.19;4171720;28;20599;-52
2022/07/16 05:05:00;;;;;;;5.75;3.42;;;;;;;22.72;48.26;94845.22;4174147;28;20079;-51
2022/07/16 05:07:02;;;;;;;7.20;3.28;;;;;;;22.76;48.27;94844.50;4170041;28;20045;-51
2022/07/16 05:09:04;;;;;;;5.93;3.05;;;;;;;22.80;48.08;94848.34;4168666;28;20052;-55
2022/07/16 05:11:06;;;;;;;6.07;3.60;;;;;;;22.88;48.23;94841.84;4176733;28;20497;-53
2022/07/16 05:13:10;;;;;;;6.97;3.42;;;;;;;22.96;48.17;94843.34;4164186;28;20456;-57
2022/07/16 05:15:12;;;;;;;6.07;3.72;;;;;;;23.03;47.56;94847.56;4172781;28;20053;-54
2022/07/16 05:17:14;;;;;;;6.22;4.30;;;;;;;22.95;47.90;94847.91;4162845;28;20045;-54
2022/07/16 05:19:15;;;;;;;5.20;3.60;;;;;;;22.84;47.75;94838.84;4167973;28;20045;-54
2022/07/16 05:21:17;;;;;;;10.48;3.90;;;;;;;22.54;48.35;94852.25;4159076;28;20124;-54
2022/07/16 05:23:22;;;;;;;4.00;3.50;;;;;;;22.48;48.13;94846.00;4158352;28;20061;-54
2022/07/16 05:25:24;;;;;;;7.00;3.60;;;;;;;22.54;48.32;94846.91;4164544;28;20044;-54
2022/07/16 05:27:25;;;;;;;6.78;3.60;;;;;;;22.59;48.36;94843.56;4175745;28;20048;-53
2022/07/16 05:29:27;;;;;;;6.45;3.45;;;;;;;22.74;48.04;94845.78;4165279;28;20086;-54
2022/07/16 05:31:29;;;;;;;7.63;3.40;;;;;;;22.88;47.45;94841.84;4162119;28;20045;-52
2022/07/16 05:33:30;;;;;;;8.35;3.60;;;;;;;23.05;47.12;94834.78;4157728;28;20081;-51
2022/07/16 05:35:32;;;;;;;4.72;3.60;;;;;;;23.18;46.95;94844.41;4158812;28;20114;-54
2022/07/16 05:37:34;;;;;;;6.43;3.92;;;;;;;23.28;46.37;94843.81;4172673;28;20127;-53
2022/07/16 05:39:35;;;;;;;6.43;3.90;;;;;;;23.36;46.63;94843.47;4159504;28;20063;-52
2022/07/16 05:41:37;;;;;;;5.82;3.58;;;;;;;23.44;46.47;94843.09;4165227;28;20491;-50
2022/07/16 05:43:39;;;;;;;6.18;3.10;;;;;;;23.61;45.97;94848.50;4165015;28;20061;-52
2022/07/16 05:45:40;;;;;;;9.95;3.67;;;;;;;23.71;45.56;94846.06;4172143;28;20126;-55
2022/07/16 05:47:42;;;;;;;5.20;3.70;;;;;;;23.80;45.37;94853.72;4157911;28;20057;-54
2022/07/16 05:49:44;;;;;;;9.45;4.32;;;;;;;23.74;45.66;94854.66;4162425;28;20045;-52
2022/07/16 05:51:46;;;;;;;16.63;4.13;;;;;;;23.67;45.40;94857.47;4169369;28;20587;-58
2022/07/16 05:53:48;;;;;;;7.07;3.42;;;;;;;23.67;45.75;94854.78;4168562;28;20489;-51
2022/07/16 05:55:50;;;;;;;12.90;3.55;;;;;;;23.42;46.10;94857.75;4163485;28;20049;-51
2022/07/16 05:57:51;;;;;;;9.15;3.85;;;;;;;23.03;46.55;94854.75;4166539;28;20049;-53
2022/07/16 05:59:53;;;;;;;11.77;3.28;;;;;;;23.03;46.63;94860.91;4158927;28;20432;-54
2022/07/16 06:01:55;;;;;;;7.90;3.53;;;;;;;23.20;46.28;94852.19;4164724;28;20523;-54
2022/07/16 06:03:57;;;;;;;5.72;3.45;;;;;;;23.35;45.81;94851.72;4165727;28;20604;-50
2022/07/16 06:05:59;;;;;;;4.97;3.35;;;;;;;23.58;45.61;94851.66;4170007;28;20276;-51
2022/07/16 06:08:01;;;;;;;5.07;3.20;;;;;;;23.77;45.41;94851.50;4174727;28;20055;-53
2022/07/16 06:10:04;;;;;;;7.28;3.53;;;;;;;23.63;45.53;94842.94;4161466;28;20048;-53
2022/07/16 06:12:06;;;;;;;8.07;3.45;;;;;;;23.69;45.56;94847.34;4170117;28;20045;-54
2022/07/16 06:14:08;;;;;;;6.68;3.67;;;;;;;23.49;45.93;94843.22;4158085;28;20118;-53
2022/07/16 06:16:10;;;;;;;7.35;3.25;;;;;;;23.15;47.01;94857.44;4157878;28;20057;-52
2022/07/16 06:18:11;;;;;;;10.80;4.05;;;;;;;23.07;47.77;94850.59;4156483;28;20341;-51
2022/07/16 06:20:13;;;;;;;8.30;3.42;;;;;;;23.11;47.64;94846.41;4161921;28;20186;-54
2022/07/16 06:22:15;;;;;;;5.70;3.85;;;;;;;23.33;47.55;94849.28;4177851;28;20049;-54
2022/07/16 06:24:16;;;;;;;6.90;4.18;;;;;;;23.57;47.16;94846.56;4177663;28;20065;-55
2022/07/16 06:26:18;;;;;;;10.43;4.10;;;;;;;23.79;46.75;94844.06;4179078;28;20295;-54
2022/07/16 06:28:20;;;;;;;4.68;3.55;;;;;;;23.94;46.62;94844.38;4176904;28;20059;-53
2022/07/16 06:30:22;;;;;;;7.70;3.72;;;;;;;24.12;46.40;94844.19;4162064;28;20057;-51
2022/07/16 06:32:23;;;;;;;5.82;4.05;;;;;;;24.19;46.60;94843.22;4162766;28;20065;-55
2022/07/16 06:34:25;;;;;;;5.70;3.28;;;;;;;24.20;46.42;94837.63;4170499;28;20045;-54
2022/07/16 06:36:27;;;;;;;7.53;3.15;;;;;;;24.30;46.28;94842.34;4165055;28;20055;-53
2022/07/16 06:38:29;;;;;;;6.65;3.17;;;;;;;24.44;46.44;94830.28;4176291;28;20060;-54
2022/07/16 06:40:31;;;;;;;12.70;4.05;;;;;;;24.52;46.35;94839.78;4175432;28;20048;-52
2022/07/16 06:42:32;;;;;;;6.78;3.35;;;;;;;24.55;46.54;94838.50;4166191;28;20059;-54
2022/07/16 06:44:34;;;;;;;13.98;3.67;;;;;;;24.46;46.98;94836.19;4167477;28;20513;-53
2022/07/16 06:46:36;;;;;;;6.05;3.33;;;;;;;24.26;47.18;94843.88;4161761;28;20335;-54
2022/07/16 06:48:38;;;;;;;20.48;3.88;;;;;;;24.38;47.28;94844.63;4174591;28;20048;-53
2022/07/16 06:50:40;;;;;;;6.47;3.40;;;;;;;24.52;46.80;94839.78;4174090;28;20053;-49
2022/07/16 06:52:41;;;;;;;5.85;3.10;;;;;;;24.53;46.78;94844.91;4177732;28;20055;-56
2022/07/16 06:54:43;;;;;;;3.72;2.97;;;;;;;24.40;47.28;94849.75;4164122;28;20142;-53
2022/07/16 06:56:45;;;;;;;6.53;3.25;;;;;;;24.40;47.19;94853.22;4167897;28;20107;-52
2022/07/16 06:58:51;;;;;;;9.45;3.47;;;;;;;24.64;46.87;94853.91;4169752;28;20049;-51
2022/07/16 07:00:52;;;;;;;11.80;3.65;;;;;;;24.75;46.68;94852.22;4177970;28;20060;-51
2022/07/16 07:02:54;;;;;;;8.15;3.08;;;;;;;24.25;47.32;94851.09;4176160;28;20491;-57
2022/07/16 07:04:56;;;;;;;5.85;3.30;;;;;;;24.07;48.00;94854.78;4160964;28;20049;-53
2022/07/16 07:06:58;;;;;;;6.57;3.30;;;;;;;24.06;48.31;94858.50;4161771;28;20084;-53
2022/07/16 07:08:59;;;;;;;6.93;3.53;;;;;;;24.08;47.88;94858.28;4161622;28;20107;-55
2022/07/16 07:11:01;;;;;;;6.65;3.05;;;;;;;24.23;47.31;94860.41;4161887;28;20049;-57
2022/07/16 07:13:03;;;;;;;8.77;3.53;;;;;;;24.38;47.43;94860.69;4174834;28;20495;-52
2022/07/16 07:15:05;;;;;;;6.40;3.72;;;;;;;24.56;47.13;94857.00;4177371;28;20060;-54
2022/07/16 07:17:07;;;;;;;7.15;3.30;;;;;;;24.75;46.85;94857.56;4173174;28;20053;-54
2022/07/16 07:19:08;;;;;;;8.60;3.53;;;;;;;24.92;46.67;94860.25;4167744;28;20174;-52
2022/07/16 07:21:10;;;;;;;8.80;3.78;;;;;;;25.08;46.76;94851.41;4178325;28;20045;-51
2022/07/16 07:23:12;;;;;;;15.18;3.63;;;;;;;25.27;45.89;94846.56;4162846;28;20144;-54
2022/07/16 07:25:14;;;;;;;5.40;3.40;;;;;;;25.34;45.71;94847.22;4174826;28;20095;-59
2022/07/16 07:27:18;;;;;;;5.30;3.13;;;;;;;25.43;45.21;94854.84;4167070;28;20545;-55
2022/07/16 07:29:20;;;;;;;9.55;3.47;;;;;;;25.49;45.21;94848.47;4168599;28;20160;-55
2022/07/16 07:31:21;;;;;;;5.72;3.08;;;;;;;25.53;45.34;94844.22;4172435;28;20414;-56
2022/07/16 07:33:24;;;;;;;6.30;3.03;;;;;;;25.67;44.68;94844.69;4159760;28;20053;-54
2022/07/16 07:35:26;;;;;;;8.68;3.15;;;;;;;25.81;44.15;94845.91;4161700;28;20072;-51
2022/07/16 07:37:28;;;;;;;12.70;4.03;;;;;;;25.84;43.85;94845.44;4161006;28;20124;-52
2022/07/16 07:39:30;;;;;;;11.18;3.38;;;;;;;25.84;43.25;94844.63;4161230;28;20115;-54
2022/07/16 07:41:32;;;;;;;8.25;3.60;;;;;;;25.72;41.84;94852.78;4171351;28;20115;-54
2022/07/16 07:43:34;;;;;;;7.75;3.38;;;;;;;25.80;42.55;94848.88;4167066;28;20107;-50
2022/07/16 07:45:35;;;;;;;8.85;3.60;;;;;;;25.98;42.67;94848.53;4161457;28;20049;-52
2022/07/16 07:47:38;;;;;;;6.20;3.00;;;;;;;26.14;42.17;94854.91;4173071;28;20057;-55
2022/07/16 07:49:39;;;;;;;8.10;3.38;;;;;;;26.21;42.22;94855.50;4177532;28;20106;-53
2022/07/16 07:51:45;;;;;;;7.60;4.18;;;;;;;25.98;42.04;94855.78;4171065;28;20056;-54
2022/07/16 07:53:47;;;;;;;9.75;3.20;;;;;;;25.88;42.32;94861.84;4169906;28;20132;-54
2022/07/16 07:55:49;;;;;;;6.18;3.50;;;;;;;25.75;42.02;94863.84;4165512;28;20068;-54
2022/07/16 07:57:51;;;;;;;6.07;3.70;;;;;;;25.64;42.67;94862.09;4159518;28;20056;-50
2022/07/16 07:59:52;;;;;;;9.88;3.88;;;;;;;25.75;42.60;94858.47;4161122;28;20038;-54
2022/07/16 08:01:54;;;;;;;4.78;2.60;;;;;;;25.66;42.08;94859.97;4160889;28;20111;-52
2022/07/16 08:03:56;;;;;;;6.47;3.00;;;;;;;25.64;42.92;94859.41;4159830;28;20049;-54
2022/07/16 08:05:58;;;;;;;6.30;2.60;;;;;;;25.83;43.09;94859.09;4171902;28;20095;-56
2022/07/16 08:07:59;;;;;;;5.32;3.15;;;;;;;26.15;42.32;94851.16;4176788;28;20079;-53
2022/07/16 08:10:02;;;;;;;7.43;3.00;;;;;;;26.27;41.46;94853.69;4174364;28;20100;-52
2022/07/16 08:12:04;;;;;;;5.07;3.28;;;;;;;26.39;41.30;94848.97;4166016;28;20053;-54
2022/07/16 08:14:06;;;;;;;6.50;3.97;;;;;;;26.42;41.65;94848.47;4168297;28;20057;-51
2022/07/16 08:16:27;;;;;;;13.13;4.75;;;;;;;26.48;40.89;94847.44;4174975;28;20077;-52
2022/07/16 08:18:29;;;;;;;6.35;3.33;;;;;;;26.53;40.75;94844.00;4173068;28;20049;-52
2022/07/16 08:20:31;;;;;;;6.65;3.20;;;;;;;26.74;40.71;94853.88;4160829;28;20508;-50
2022/07/16 08:22:33;;;;;;;4.75;3.28;;;;;;;26.75;40.54;94849.31;4161085;28;20148;-57
2022/07/16 08:26:56;;;;;;;9.13;3.25;;;;;;;26.94;40.46;94849.72;4159889;28;20080;-55
2022/07/16 08:28:57;;;;;;;7.05;3.30;;;;;;;27.01;40.32;94844.94;4160517;28;20055;-53
2022/07/16 08:30:59;;;;;;;4.03;2.50;;;;;;;26.89;40.48;94841.63;4160439;28;20473;-54
2022/07/16 08:33:01;;;;;;;5.07;3.05;;;;;;;27.02;40.02;94840.34;4159019;28;20057;-53
2022/07/16 08:35:04;;;;;;;3.35;2.38;;;;;;;26.88;39.99;94843.50;4173684;28;20562;-53
2022/07/16 08:37:09;;;;;;;3.80;2.85;;;;;;;26.80;40.48;94843.97;4173487;28;20140;-51
2022/07/16 08:39:11;;;;;;;5.53;3.00;;;;;;;27.01;40.29;94847.63;4166224;28;20057;-53
2022/07/16 08:41:13;;;;;;;6.88;3.00;;;;;;;26.99;40.38;94848.94;4170365;28;20056;-54
2022/07/16 08:43:15;;;;;;;6.80;3.20;;;;;;;27.01;40.49;94846.81;4167750;28;20053;-51
2022/07/16 08:45:20;;;;;;;10.88;2.70;;;;;;;27.23;39.66;94850.19;4160024;28;20050;-50
2022/07/16 08:47:21;;;;;;;3.47;2.28;;;;;;;27.35;39.56;94853.50;4159710;28;20061;-53
2022/07/16 08:49:24;;;;;;;7.30;2.60;;;;;;;27.58;39.04;94852.28;4158441;28;20521;-51
2022/07/16 08:51:37;;;;;;;5.47;3.17;;;;;;;27.68;39.21;94846.13;4168610;28;20080;-53
2022/07/16 08:53:39;;;;;;;7.28;3.72;;;;;;;27.73;38.90;94854.25;4167598;28;20079;-53
2022/07/16 08:55:41;;;;;;;3.83;2.80;;;;;;;27.87;38.71;94856.47;4164465;28;20145;-52
2022/07/16 08:57:47;;;;;;;6.40;2.88;;;;;;;27.94;38.33;94855.16;4157586;28;20107;-52
2022/07/16 08:59:50;;;;;;;5.20;2.80;;;;;;;27.92;38.64;94853.78;4161055;28;20041;-54
2022/07/16 09:01:52;;;;;;;7.05;3.20;;;;;;;27.91;38.61;94865.63;4170881;28;20049;-51
2022/07/16 09:03:54;;;;;;;8.75;3.10;;;;;;;27.73;39.42;94856.94;4167117;28;20059;-53
2022/07/16 09:05:56;;;;;;;6.38;2.80;;;;;;;27.98;38.90;94852.72;4164758;28;20115;-52
2022/07/16 09:07:58;;;;;;;5.03;3.10;;;;;;;28.02;38.49;94859.22;4158682;28;20117;-52
2022/07/16 09:10:00;;;;;;;6.05;3.10;;;;;;;28.06;38.56;94856.81;4166343;28;20053;-52
2022/07/16 09:12:02;;;;;;;5.37;2.70;;;;;;;28.29;38.15;94850.94;4170323;28;20076;-54
2022/07/16 09:14:13;;;;;;;6.97;3.35;;;;;;;28.44;38.22;94860.09;4159127;28;20478;-52
2022/07/16 09:16:27;;;;;;;7.22;2.97;;;;;;;28.68;37.43;94852.34;4159458;28;20490;-53
2022/07/16 09:18:29;;;;;;;5.63;2.92;;;;;;;28.66;37.19;94844.53;4156813;28;20053;-51
2022/07/16 09:20:31;;;;;;;5.15;2.60;;;;;;;28.72;37.02;94850.75;4164252;28;20127;-54
2022/07/16 09:22:37;;;;;;;5.15;2.60;;;;;;;28.68;37.02;94852.34;4167115;28;20049;-55
2022/07/16 09:24:54;;;;;;;6.60;2.90;;;;;;;28.89;36.83;94840.50;4170706;28;20061;-52
2022/07/16 09:27:08;;;;;;;7.68;2.65;;;;;;;29.00;37.07;94847.50;4158813;28;20440;-51
2022/07/16 09:29:13;;;;;;;7.15;2.45;;;;;;;28.52;36.79;94846.97;4159593;28;20118;-53
2022/07/16 09:31:37;;;;;;;6.35;2.50;;;;;;;28.68;36.69;94841.56;4158299;28;20145;-54
2022/07/16 09:33:39;;;;;;;6.25;2.47;;;;;;;28.90;35.63;94841.28;4157609;28;20045;-54
2022/07/16 09:35:41;;;;;;;8.73;2.47;;;;;;;29.08;34.69;94829.97;4164833;28;20045;-55
2022/07/16 09:37:47;;;;;;;5.10;2.30;;;;;;;29.25;35.08;94835.06;4175730;28;20057;-50
2022/07/16 09:39:50;;;;;;;6.50;2.30;;;;;;;29.29;34.56;94833.44;4175733;28;20048;-53